AirNav   Air Wisconsin pilot careers
 
 963 users online  

OK01 Skyhaven Airpark
Vera, Oklahoma, USA

GOING TO VERA?


FAA INFORMATION EFFECTIVE 03 JANUARY 2019

Location

FAA Identifier: OK01
Lat/Long: 36-25-44.3300N / 095-54-11.9600W
36-25.738833N / 095-54.199333W
36.4289806 / -95.9033222
(estimated)
Elevation: 675 ft. / 206 m (estimated)
Variation: 05E (2000)
From city: 2 miles SW of VERA, OK
Time zone: UTC -6 (UTC -5 during Daylight Saving Time)
Zip code: 74021

Airport Operations

Airport use: Private use. Permission required prior to landing
Activation date: 11/2000
Control tower: no
ARTCC: KANSAS CITY CENTER
FSS: MC ALESTER FLIGHT SERVICE STATION
Attendance: UNATNDD
Segmented circle: no

Airport Communications

UNICOM: 122.8
WX ASOS at TUL (14 nm S): PHONE 918-831-6772
WX AWOS-3 at OWP (19 nm SW): 118.325 (918-246-2635)

Nearby radio navigation aids

VOR radial/distance  VOR name  Freq  Var
TULr330/15.0TULSA VORTAC114.4008E
BVOr159/24.9BARTLESVILLE VOR/DME117.9008E
GNPr360/30.6GLENPOOL VOR/DME110.6006E

 
NDB name  Hdg/Dist  Freq  Var  ID
WILLIAM POGUE032/19.636206EOWP --- .-- .--.

Airport Services

Runway Information

Runway 17/35

Dimensions: 4400 x 75 ft. / 1341 x 23 m
Surface: turf
RUNWAY 17  RUNWAY 35
Traffic pattern: leftleft

Airport Ownership and Management from official FAA records

Ownership: Privately-owned
Owner: SKYHAVEN RUNWAY ASSOCIATION
PO BOX 490
COLLINSVILLE, OK 74021
Phone 918-371-2877
Manager: JOHN NYS
PO BOX 490
COLLINSVILLE, OK 74021
Phone (918) 519-5846
PRESIDENT, SKYHAVEN RUNWAY ASSOCIATION. EMAIL: JNYS1943@GMAIL.COM.

Airport Operational Statistics

Aircraft based on the field: 12
Single engine airplanes: 11
Multi engine airplanes: 1
    

Instrument Procedures

There are no published instrument procedures at OK01.

Some nearby airports with instrument procedures:

KTUL - Tulsa International Airport (14 nm S)
KOWP - William R Pogue Municipal Airport (19 nm SW)
KBVO - Bartlesville Municipal Airport (21 nm N)
KGCM - Claremore Regional Airport (22 nm E)
KRVS - Richard Lloyd Jones Jr Airport (24 nm S)
 
Loc | Ops | Rwys | IFR | FBO | Links
Com | Nav | Svcs | Stats | Notes
Area around OK01 (Skyhaven Airpark)
 
Road maps at: MapQuest Bing Google
 
Aerial photo
WARNING: Photo may not be current or correct
Aerial photo of OK01 (Skyhaven Airpark)
Photo by Stephen E. Dunbar
Photo taken 30-May-2014
looking northeast.

Do you have a better or more recent aerial photo of Skyhaven Airpark that you would like to share? If so, please send us your photo.

 
Sectional chart

 
Airport distance calculator
Flying to Skyhaven Airpark? Find the distance to fly.

From to OK01

Sunrise and sunset
Times for 16-Jan-2019
 Local
(UTC-6)
 Zulu
(UTC)
Morning civil twilight07:0713:07
Sunrise07:3513:35
Sunset17:3223:32
Evening civil twilight18:0024:00

Current date and time
Zulu (UTC)  16-Jan-2019 13:37:43
Local (UTC-6)  16-Jan-2019 07:37:43
 
METAR
KTUL 
14nm S 
161253Z 17009KT 8SM OVC027 07/03 A3017 RMK AO2 SLP218 T00670028
KOWP 
19nm SW 
161315Z AUTO 14004KT 7SM OVC029 07/04 A3017 RMK AO2 T00720042
KBVO 
21nm N 
161253Z AUTO 15003KT 7SM OVC031 05/03 A3019 RMK AO2 SLP222 T00500033
KGCM 
22nm E 
161315Z AUTO 15003KT 7SM OVC025 05/02 A3021 RMK AO2 TSNO
KRVS 
23nm S 
161253Z 14004KT 9SM OVC028 07/03 A3019 RMK AO2 SLP229 T00670028
TAF
KTUL 
14nm S 
161133Z 1612/1712 16008KT P6SM OVC028 FM161800 15012KT P6SM OVC035 FM170600 17010KT 4SM BR OVC025 FM170900 21006KT 1/2SM FG OVC015
NOTAMs
Click for the latest NOTAMs
NOTAMs are issued by the DoD/FAA and will open in a separate window not controlled by AirNav.

 

 
 

Would you like to see your business listed on this page?

 If your business provides an interesting product or service to pilots, flight crews, aircraft, or users of the Skyhaven Airpark, you should consider listing it here.  To start the listing process, click on the button below
 
Add a business
 

Other Pages about Skyhaven Airpark

Update a link
 
Copyright © AirNav, LLC. All rights reserved. Privacy Policy  Contact